createdAt,value
2023-12-11T00:03:22.459Z,94.3
2023-12-11T00:14:00.618Z,95.39
2023-12-11T00:19:19.951Z,95.79
2023-12-11T00:29:57.963Z,96.11
2023-12-11T00:40:37.436Z,95.72
2023-12-11T00:45:55.130Z,95.75
2023-12-11T00:56:34.349Z,96.22
2023-12-11T01:01:53.944Z,96.06
2023-12-11T01:12:32.227Z,95.72
2023-12-11T01:23:10.670Z,94.99
2023-12-11T01:28:29.659Z,95.08
2023-12-11T01:39:08.126Z,94.78
2023-12-11T01:44:27.709Z,94.89
2023-12-11T01:55:06.094Z,94.37
2023-12-11T02:05:44.374Z,93.16
2023-12-11T02:11:03.364Z,93.22
2023-12-11T02:21:41.380Z,93.43
2023-12-11T02:27:00.344Z,92.93
2023-12-11T02:37:38.715Z,92.43
2023-12-11T02:48:17.111Z,92.22
2023-12-11T02:53:36.564Z,92.57
2023-12-11T03:04:15.739Z,92.88
2023-12-11T03:09:34.171Z,92.51
2023-12-11T03:20:12.120Z,92.04
2023-12-11T03:36:09.924Z,91.66
2023-12-11T03:46:48.831Z,92.14
2023-12-11T03:52:08.200Z,92.18
2023-12-11T04:02:46.364Z,92.44
2023-12-11T04:08:05.683Z,92.29
2023-12-11T04:13:24.573Z,92.12
2023-12-11T04:18:43.974Z,92.18
2023-12-11T04:29:21.780Z,92.37
2023-12-11T04:34:41.060Z,92.26
2023-12-11T04:45:19.505Z,92.5
2023-12-11T04:55:57.995Z,92.6
2023-12-11T05:11:56.761Z,91.91
2023-12-11T05:22:34.849Z,92.14
2023-12-11T05:27:54.409Z,92.36
2023-12-11T05:38:33.100Z,93.2
2023-12-11T05:43:52.338Z,93.53
2023-12-11T05:49:11.516Z,93.89
2023-12-11T05:54:30.627Z,94.89
2023-12-11T06:05:08.527Z,95.19
2023-12-11T06:10:27.735Z,95.22
2023-12-11T06:21:06.071Z,93.9
2023-12-11T06:37:03.404Z,91.82
2023-12-11T06:47:41.285Z,89.11
2023-12-11T06:53:00.006Z,87.93
2023-12-11T07:03:39.276Z,87.08
2023-12-11T07:08:58.362Z,86.9
2023-12-11T07:14:17.985Z,87.19
2023-12-11T07:19:37.301Z,87.52
2023-12-11T07:30:16.006Z,87.63
2023-12-11T07:35:34.610Z,87.79
2023-12-11T07:46:12.839Z,87.32
2023-12-11T07:51:32.308Z,86.75
2023-12-11T08:02:11.297Z,84.75
2023-12-11T08:12:49.795Z,84.3
2023-12-11T08:18:08.340Z,83.62
2023-12-11T08:28:47.723Z,81.58
2023-12-11T08:34:06.234Z,81.87
2023-12-11T08:44:44.695Z,82.51
2023-12-11T08:55:22.934Z,82.24
2023-12-11T09:00:41.913Z,82.34
2023-12-11T09:11:21.172Z,80.69
2023-12-11T09:16:40.696Z,79.23
2023-12-11T09:27:18.300Z,78.74
2023-12-11T09:32:37.578Z,79.46
2023-12-11T09:43:15.873Z,78.36
2023-12-11T09:53:54.147Z,76.76
2023-12-11T09:59:13.710Z,76.32
2023-12-11T10:09:51.156Z,76.07
2023-12-11T10:15:10.302Z,76.08
2023-12-11T10:20:29.320Z,75.12
2023-12-11T10:25:48.181Z,74.5
2023-12-11T10:36:26.568Z,72.17
2023-12-11T10:41:45.069Z,71.49
2023-12-11T10:52:23.584Z,71.4
2023-12-11T11:08:21.468Z,70.75
2023-12-11T11:13:39.156Z,70.11
2023-12-11T11:18:58.149Z,70.83
2023-12-11T11:24:16.604Z,68.03
2023-12-11T11:34:54.806Z,69.12
2023-12-11T11:45:33.922Z,72.05
2023-12-11T12:01:31.353Z,71.46
2023-12-11T12:12:09.781Z,70.83
2023-12-11T12:17:30.012Z,70.74
2023-12-11T12:28:08.124Z,72.76
2023-12-11T12:33:27.908Z,68.49
2023-12-11T12:44:06.196Z,67.92
2023-12-11T13:10:43.615Z,65.08
2023-12-11T13:16:01.478Z,64.21
2023-12-11T13:26:38.578Z,66.19
2023-12-11T13:31:58.243Z,65.16
2023-12-11T13:42:35.817Z,65.83
2023-12-11T13:53:14.297Z,66.44
2023-12-11T13:58:34.054Z,67.18
2023-12-11T14:09:12.657Z,67.65
2023-12-11T14:14:31.109Z,68.54
2023-12-11T14:19:49.904Z,68.83
2023-12-11T14:25:08.965Z,68.89
2023-12-11T14:35:47.278Z,68.98
2023-12-11T14:41:07.131Z,68.46
2023-12-11T14:51:45.534Z,68.78
2023-12-11T14:57:04.426Z,69.19
2023-12-11T15:07:43.067Z,69.44
2023-12-11T15:18:21.704Z,68.57
2023-12-11T15:23:40.808Z,68.43
2023-12-11T15:34:20.593Z,68.08
2023-12-11T15:39:38.997Z,68.44
2023-12-11T15:50:19.051Z,69.31
2023-12-11T15:56:14.439Z,69.87
2023-12-11T16:06:53.655Z,70.04
2023-12-11T16:12:12.239Z,70.44
2023-12-11T16:22:51.735Z,71.19
2023-12-11T16:28:11.285Z,71.44
2023-12-11T16:38:48.909Z,73.98
2023-12-11T16:44:08.755Z,74.94
2023-12-11T16:49:27.701Z,74.65
2023-12-11T16:54:46.875Z,74.01
2023-12-11T17:05:24.705Z,72.19
2023-12-11T17:10:43.889Z,71.4
2023-12-11T17:21:25.289Z,70.04
2023-12-11T17:26:41.634Z,70.15
2023-12-11T17:32:01.144Z,69.78
2023-12-11T17:37:20.905Z,69.4
2023-12-11T17:47:59.705Z,69.11
2023-12-11T17:53:18.345Z,68.83
2023-12-11T18:03:56.748Z,69.43
2023-12-11T18:09:15.833Z,70.01
2023-12-11T18:19:55.027Z,70.58
2023-12-11T18:30:33.902Z,71.54
2023-12-11T18:41:11.899Z,71.25
2023-12-11T18:46:31.735Z,71.21
2023-12-11T18:57:09.936Z,71.41
2023-12-11T19:02:29.299Z,71.69
2023-12-11T19:13:08.183Z,72.26
2023-12-11T19:23:46.998Z,74.48
2023-12-11T19:29:06.148Z,74.6
2023-12-11T19:39:44.245Z,75.19
2023-12-11T19:45:03.508Z,75.37
2023-12-11T19:55:41.563Z,75.16
2023-12-11T20:06:20.537Z,75.47
2023-12-11T20:11:40.350Z,75.66
2023-12-11T20:22:18.683Z,77
2023-12-11T20:27:38.519Z,78.19
2023-12-11T20:38:17.188Z,80.08
2023-12-11T20:43:36.972Z,80.91
2023-12-11T20:48:55.821Z,81.06
2023-12-11T20:54:15.140Z,81.23
2023-12-11T21:04:53.350Z,80.94
2023-12-11T21:10:12.984Z,80.37
2023-12-11T21:20:52.008Z,79.29
2023-12-11T21:26:10.858Z,78.81
2023-12-11T21:36:48.510Z,78.93
2023-12-11T21:42:07.423Z,78.42
2023-12-11T21:47:28.183Z,77.87
2023-12-11T21:52:46.216Z,77.58
2023-12-11T22:03:25.591Z,76.74
2023-12-11T22:08:43.460Z,76.62
2023-12-11T22:19:22.310Z,76.86
2023-12-11T22:30:00.401Z,77.28
2023-12-11T22:35:19.242Z,77.51
2023-12-11T22:45:57.301Z,77.75
2023-12-11T22:51:16.880Z,78.01
2023-12-11T22:56:36.563Z,78.17
2023-12-11T23:01:56.690Z,78.17
2023-12-11T23:07:15.672Z,78.3
2023-12-11T23:13:49.826Z,78.49
2023-12-11T23:17:53.902Z,78.75
2023-12-11T23:28:31.640Z,78.87
2023-12-11T23:33:51.482Z,79
2023-12-11T23:44:28.459Z,79.54
